Time;durP1;ratioP1;P1;durP2;ratioP2;P2;SDS_P1;SDS_P2;PMS_P1;PMS_P2;Temp;Humidity;BMP_temperature;BMP_pressure;BME280_temperature;BME280_humidity;BME280_pressure;Samples;Min_cycle;Max_cycle;Signal;HPM_P1;HPM_P2
2021/04/18 06:40:52;;;;;;;;;;;2.70;99.90;;;;;;6329174;22;19918;-96
2021/04/18 06:43:26;;;;;;;;;;;2.70;99.90;;;;;;6327146;22;19919;-95
2021/04/18 06:46:16;;;;;;;;;;;2.80;99.90;;;;;;6332708;22;19945;-96
2021/04/18 07:30:14;;;;;;;;;;;4.20;99.90;;;;;;6269671;22;20005;-95
2021/04/18 07:33:09;;;;;;;;;;;4.10;99.90;;;;;;6281792;22;20107;-96
2021/04/18 08:38:06;;;;;;;;;;;4.30;99.90;;;;;;6273996;22;20211;31
2021/04/18 08:43:47;;;;;;;;;;;4.30;99.90;;;;;;6336338;22;19918;-96
2021/04/18 08:46:28;;;;;;;;;;;4.30;99.90;;;;;;6334566;22;19939;-96
2021/04/18 08:51:41;;;;;;;;;;;4.60;99.90;;;;;;6317198;22;19923;-96
2021/04/18 08:54:27;;;;;;;;;;;4.80;99.90;;;;;;6303643;22;19919;-96
2021/04/18 08:57:10;;;;;;;;;;;4.80;99.90;;;;;;6294911;22;19964;-96
2021/04/18 08:59:52;;;;;;;;;;;4.80;99.90;;;;;;6306434;22;19915;-96
2021/04/18 09:05:30;;;;;;;;;;;4.90;99.90;;;;;;6345174;22;19944;-96
2021/04/18 09:08:18;;;;;;;;;;;5.00;99.90;;;;;;6360550;22;20275;-96
2021/04/18 09:11:03;;;;;;;;;;;5.10;99.90;;;;;;6350562;22;19929;-96
2021/04/18 09:13:36;;;;;;;;;;;5.10;99.90;;;;;;6354902;22;19919;-96
2021/04/18 09:16:22;;;;;;;;;;;5.30;99.90;;;;;;6348309;22;19926;-95
2021/04/18 09:18:49;;;;;;;;;;;5.30;99.90;;;;;;6344278;22;19918;-96
2021/04/18 09:21:21;;;;;;;;;;;5.10;99.90;;;;;;6348195;22;19926;-96
2021/04/18 09:23:55;;;;;;;;;;;5.00;99.90;;;;;;6352717;22;19925;-96
2021/04/18 09:26:22;;;;;;;;;;;5.00;99.90;;;;;;6346798;22;19930;-96
2021/04/18 09:29:08;;;;;;;;;;;5.00;99.90;;;;;;6351930;22;19920;-96
2021/04/18 09:32:09;;;;;;;;;;;4.90;99.90;;;;;;6363860;22;19997;-95
2021/04/18 09:40:23;;;;;;;;;;;5.00;99.90;;;;;;6324515;22;19918;-96
2021/04/18 09:43:22;;;;;;;;;;;;;;;;;;;;;
2021/04/18 10:14:46;;;;;;;;;;;5.20;99.90;;;;;;6146634;23;19951;-96
2021/04/18 16:39:58;;;;;;;;;;;4.70;99.90;;;;;;6301031;22;19963;-96
2021/04/18 16:42:39;;;;;;;;;;;4.60;99.90;;;;;;6272508;22;19967;-90
2021/04/18 16:50:41;;;;;;;;;;;4.70;99.90;;;;;;6333511;22;19915;-96
2021/04/18 16:53:12;;;;;;;;;;;4.70;99.90;;;;;;6327262;22;19970;-95
2021/04/18 16:56:20;;;;;;;;;;;4.70;99.90;;;;;;6326215;22;19946;-94
2021/04/18 16:58:47;;;;;;;;;;;4.60;99.90;;;;;;6351597;22;19934;-95
2021/04/18 17:01:16;;;;;;;;;;;4.50;99.90;;;;;;6349176;22;19924;-95
2021/04/18 17:03:46;;;;;;;;;;;4.50;99.90;;;;;;6350053;22;19919;-96
2021/04/18 17:06:27;;;;;;;;;;;4.40;99.90;;;;;;6347709;22;19930;-96
2021/04/18 17:09:18;;;;;;;;;;;4.40;99.90;;;;;;6348836;22;19926;-96
2021/04/18 17:11:55;;;;;;;;;;;4.40;99.90;;;;;;6349360;22;19930;-95
2021/04/18 17:14:50;;;;;;;;;;;;;;;;;;;;;
2021/04/18 17:17:28;;;;;;;;;;;4.40;99.90;;;;;;6350543;22;19964;-96
2021/04/18 17:19:58;;;;;;;;;;;4.30;99.90;;;;;;6348762;22;19934;-95
2021/04/18 17:22:25;;;;;;;;;;;4.30;99.90;;;;;;6347808;22;19919;-96
2021/04/18 17:24:52;;;;;;;;;;;4.30;99.90;;;;;;6348934;22;19918;-95
2021/04/18 17:27:40;;;;;;;;;;;4.30;99.90;;;;;;6348029;22;19941;-95
2021/04/18 17:30:16;;;;;;;;;;;4.30;99.90;;;;;;6348776;22;20209;-95
2021/04/18 17:32:42;;;;;;;;;;;4.30;99.90;;;;;;6349056;22;19972;-95
2021/04/18 17:35:10;;;;;;;;;;;4.20;99.90;;;;;;6350075;22;20030;-95
2021/04/18 17:37:41;;;;;;;;;;;4.30;99.90;;;;;;6362263;22;19906;-95
2021/04/18 17:40:12;;;;;;;;;;;4.30;99.90;;;;;;6367780;22;19915;-95
2021/04/18 17:42:40;;;;;;;;;;;4.20;99.90;;;;;;6350671;22;20316;-95
2021/04/18 17:45:07;;;;;;;;;;;4.20;99.90;;;;;;6345829;22;19919;-95
2021/04/18 17:47:35;;;;;;;;;;;4.20;99.90;;;;;;6343257;22;19925;-95
2021/04/18 17:50:04;;;;;;;;;;;4.20;99.90;;;;;;6344391;22;19919;-96
2021/04/18 17:52:31;;;;;;;;;;;4.10;99.90;;;;;;6345549;22;19918;-95
2021/04/18 17:54:57;;;;;;;;;;;4.10;99.90;;;;;;6345392;22;19919;-96
2021/04/18 17:57:24;;;;;;;;;;;4.10;99.90;;;;;;6345515;22;19923;-95
2021/04/18 17:59:54;;;;;;;;;;;4.10;99.90;;;;;;6346134;22;19925;-96
2021/04/18 18:02:21;;;;;;;;;;;4.10;99.90;;;;;;6346784;22;19918;-95
2021/04/18 18:04:48;;;;;;;;;;;4.00;99.90;;;;;;6346229;22;19972;-96
2021/04/18 18:07:24;;;;;;;;;;;4.00;99.90;;;;;;6345690;22;20383;-96
2021/04/18 18:10:01;;;;;;;;;;;3.90;99.90;;;;;;6346466;22;19919;-95
2021/04/18 18:12:33;;;;;;;;;;;4.00;99.90;;;;;;6322063;22;19942;-95
2021/04/18 18:15:11;;;;;;;;;;;4.00;99.90;;;;;;6352276;22;19946;-96
2021/04/18 18:17:44;;;;;;;;;;;3.90;99.90;;;;;;6347495;22;20028;-95
2021/04/18 18:20:12;;;;;;;;;;;3.90;99.90;;;;;;6346437;22;19918;-94
2021/04/18 18:22:48;;;;;;;;;;;3.90;99.90;;;;;;6347785;22;19918;-95
2021/04/18 18:26:05;;;;;;;;;;;3.90;99.90;;;;;;6241936;23;19959;-96
2021/04/18 18:28:52;;;;;;;;;;;3.90;99.90;;;;;;6245647;23;19918;-95
2021/04/18 18:31:45;;;;;;;;;;;3.90;99.90;;;;;;6233314;23;19926;-94
2021/04/18 18:34:14;;;;;;;;;;;3.90;99.90;;;;;;6224554;23;20277;-94
2021/04/18 18:36:43;;;;;;;;;;;3.80;99.90;;;;;;6224662;23;19978;-95
2021/04/18 18:39:12;;;;;;;;;;;3.80;99.90;;;;;;6224759;23;19919;-94
2021/04/18 18:41:53;;;;;;;;;;;3.80;99.90;;;;;;6225297;23;20357;-95
2021/04/18 18:44:25;;;;;;;;;;;3.90;99.90;;;;;;6226118;23;19923;-95
2021/04/18 18:47:18;;;;;;;;;;;3.90;99.90;;;;;;6181187;23;19939;-96
2021/04/18 18:50:04;;;;;;;;;;;3.80;99.90;;;;;;6206899;23;19958;-95
2021/04/18 19:40:18;;;;;;;;;;;3.40;99.90;;;;;;6350231;22;19922;-93
2021/04/18 19:43:06;;;;;;;;;;;3.40;99.90;;;;;;6347473;22;20394;-94
2021/04/18 20:00:11;;;;;;;;;;;3.20;99.90;;;;;;6065421;23;20028;-94
2021/04/18 20:06:52;;;;;;;;;;;3.40;99.90;;;;;;5975528;24;19930;-96
2021/04/18 20:15:48;;;;;;;;;;;3.30;99.90;;;;;;6342440;22;19948;-96
2021/04/18 20:18:28;;;;;;;;;;;3.30;99.90;;;;;;6315621;22;19945;-94
2021/04/18 21:38:03;;;;;;;;;;;3.10;99.90;;;;;;6331607;22;19989;-95
2021/04/18 21:40:42;;;;;;;;;;;3.10;99.90;;;;;;6319024;22;20338;-95
2021/04/18 21:43:45;;;;;;;;;;;;;;;;;;;;;
2021/04/18 21:50:30;;;;;;;;;;;3.30;99.90;;;;;;6343163;22;19925;-95
